Time;durP1;ratioP1;P1;durP2;ratioP2;P2;SDS_P1;SDS_P2;PMS_P1;PMS_P2;Temp;Humidity;BMP_temperature;BMP_pressure;BME280_temperature;BME280_humidity;BME280_pressure;Samples;Min_cycle;Max_cycle;Signal;HPM_P1;HPM_P2
2021/03/28 00:00:26;;;;;;;5.97;2.10;;;;;;;5.92;64.21;97225.59;1278108;23;20159;-80
2021/03/28 00:01:18;;;;;;;6.30;1.97;;;;;;;5.91;63.74;97229.28;1277989;23;20427;-80
2021/03/28 00:02:13;;;;;;;7.15;2.47;;;;;;;5.93;63.56;97232.53;1277855;23;20001;-80
2021/03/28 00:02:50;;;;;;;10.07;2.28;;;;;;;5.91;63.15;97231.94;1251682;23;20003;-79
2021/03/28 00:03:24;;;;;;;10.05;2.70;;;;;;;5.90;63.31;97234.78;1272188;23;20081;-80
2021/03/28 00:03:54;;;;;;;8.48;2.25;;;;;;;5.90;64.00;97232.13;1278227;23;20001;-80
2021/03/28 00:04:26;;;;;;;9.23;2.13;;;;;;;5.92;63.83;97230.91;1278540;23;20005;-80
2021/03/28 00:05:08;;;;;;;8.00;2.40;;;;;;;5.91;63.77;97231.94;1272037;23;20025;-82
2021/03/28 00:05:39;;;;;;;8.90;2.33;;;;;;;5.88;64.06;97234.97;1272039;23;20001;-80
2021/03/28 00:06:14;;;;;;;5.43;2.30;;;;;;;5.88;64.28;97232.31;1272108;23;20001;-80
2021/03/28 00:06:45;;;;;;;8.15;2.50;;;;;;;5.89;64.23;97233.16;1278298;23;19997;-81
2021/03/28 00:07:15;;;;;;;6.77;2.30;;;;;;;5.88;64.01;97234.16;1278278;23;20028;-80
2021/03/28 00:07:48;;;;;;;8.87;2.63;;;;;;;5.88;63.91;97236.81;1276816;23;20000;-80
2021/03/28 00:08:22;;;;;;;6.15;2.38;;;;;;;5.89;63.96;97241.13;1266239;23;20029;-80
2021/03/28 00:09:15;;;;;;;6.63;2.65;;;;;;;5.87;64.42;97229.88;1266167;23;20037;-80
2021/03/28 00:09:56;;;;;;;7.93;2.65;;;;;;;5.86;64.37;97236.22;1278462;23;20008;-79
2021/03/28 00:10:40;;;;;;;7.50;2.30;;;;;;;5.82;64.98;97233.16;1271360;23;20009;-80
2021/03/28 00:11:16;;;;;;;7.63;2.63;;;;;;;5.83;64.73;97237.44;1266159;23;20008;-79
2021/03/28 00:11:53;;;;;;;10.50;2.75;;;;;;;5.82;65.17;97230.50;1265909;23;20002;-79
2021/03/28 00:12:23;;;;;;;8.07;2.80;;;;;;;5.82;64.92;97229.69;1275629;23;20048;-79
2021/03/28 00:13:16;;;;;;;7.00;2.30;;;;;;;5.78;65.17;97241.75;1277337;23;20403;-80
2021/03/28 00:13:50;;;;;;;6.20;2.03;;;;;;;5.78;65.42;97239.09;1271894;23;20036;-81
2021/03/28 00:14:47;;;;;;;6.82;2.70;;;;;;;5.79;65.42;97243.38;1276956;23;20004;-80
2021/03/28 00:15:20;;;;;;;8.30;2.30;;;;;;;5.73;65.05;97235.25;1277955;23;20035;-80
2021/03/28 00:15:56;;;;;;;7.22;1.98;;;;;;;5.70;64.79;97245.44;1278037;23;20001;-80
2021/03/28 00:16:31;;;;;;;6.90;2.40;;;;;;;5.71;64.71;97241.75;1278132;23;20449;-80
2021/03/28 00:17:11;;;;;;;8.30;2.50;;;;;;;5.72;65.04;97238.91;1271765;23;20416;-80
2021/03/28 00:17:49;;;;;;;9.80;2.17;;;;;;;5.74;64.96;97247.47;1270092;23;20375;-81
2021/03/28 00:18:20;;;;;;;8.70;2.30;;;;;;;5.77;65.23;97248.06;1265782;23;20002;-79
2021/03/28 00:19:06;;;;;;;5.33;1.83;;;;;;;5.78;64.89;97236.44;1269318;23;19998;-79
2021/03/28 00:19:37;;;;;;;6.68;2.17;;;;;;;5.76;64.46;97238.50;1277181;23;20009;-79
2021/03/28 00:20:20;;;;;;;6.13;2.00;;;;;;;5.73;64.76;97245.00;1270037;23;20002;-80
2021/03/28 00:21:01;;;;;;;8.05;1.90;;;;;;;5.76;65.20;97241.13;1271945;23;20067;-81
2021/03/28 00:21:46;;;;;;;8.55;2.10;;;;;;;5.71;64.69;97247.88;1272144;23;20459;-79
2021/03/28 00:22:22;;;;;;;8.40;2.40;;;;;;;5.73;65.09;97245.00;1271900;23;20001;-80
2021/03/28 00:22:58;;;;;;;5.95;2.08;;;;;;;5.72;65.21;97248.69;1271954;23;20001;-80
2021/03/28 00:23:29;;;;;;;7.07;2.10;;;;;;;5.74;64.83;97244.81;1271922;23;20069;-80
2021/03/28 00:24:08;;;;;;;7.07;2.27;;;;;;;5.73;65.21;97247.66;1269487;23;20002;-80
2021/03/28 00:24:40;;;;;;;5.82;2.17;;;;;;;5.73;65.14;97242.34;1269067;23;20073;-80
2021/03/28 00:25:15;;;;;;;7.78;1.80;;;;;;;5.71;65.34;97239.91;1272074;23;20048;-80
2021/03/28 00:25:59;;;;;;;6.53;2.15;;;;;;;5.71;65.13;97241.75;1269109;23;20002;-80
2021/03/28 00:26:44;;;;;;;5.80;2.00;;;;;;;5.67;65.08;97245.84;1270104;23;20005;-80
2021/03/28 00:27:16;;;;;;;7.80;2.22;;;;;;;5.63;65.28;97232.22;1265900;23;20352;-81
2021/03/28 00:27:49;;;;;;;5.32;1.80;;;;;;;5.67;65.25;97243.19;1265830;23;20008;-79
2021/03/28 00:28:25;;;;;;;9.20;2.40;;;;;;;5.65;65.22;97240.75;1259473;23;20511;-79
2021/03/28 00:29:25;;;;;;;6.25;2.25;;;;;;;5.52;65.00;97238.13;1263345;23;20006;-80
2021/03/28 00:30:03;;;;;;;6.75;2.10;;;;;;;5.52;65.04;97238.13;1272060;23;20088;-79
2021/03/28 00:30:39;;;;;;;7.97;2.15;;;;;;;5.52;65.72;97235.47;1278031;23;20072;-80
2021/03/28 00:31:24;;;;;;;8.50;2.63;;;;;;;5.50;65.29;97237.53;1278057;23;20311;-81
2021/03/28 00:32:04;;;;;;;8.90;2.55;;;;;;;5.53;64.95;97241.59;1278027;23;20489;-80
2021/03/28 00:33:10;;;;;;;;;;;;;;;5.51;64.71;97241.81;1284777;23;20311;-79
2021/03/28 00:33:41;;;;;;;6.95;2.45;;;;;;;5.57;64.96;97235.66;1259561;23;19992;-79
2021/03/28 00:34:21;;;;;;;8.23;2.20;;;;;;;5.61;65.29;97231.59;1257834;23;20345;-80
2021/03/28 00:34:53;;;;;;;;;;;;;;;5.57;64.76;97234.84;1254256;23;20326;-80
2021/03/28 00:35:32;;;;;;;7.10;2.13;;;;;;;5.59;64.45;97236.28;1259427;23;20358;-80
2021/03/28 00:36:07;;;;;;;8.15;2.40;;;;;;;5.48;65.03;97232.44;1263892;23;20522;-80
2021/03/28 00:36:46;;;;;;;5.47;2.20;;;;;;;5.47;65.53;97233.44;1277992;23;20349;-80
2021/03/28 00:37:20;;;;;;;6.50;2.50;;;;;;;5.51;64.76;97235.69;1271816;23;20331;-80
2021/03/28 00:38:13;;;;;;;8.32;2.20;;;;;;;5.47;64.95;97241.41;1265958;23;20002;-81
2021/03/28 00:38:51;;;;;;;6.50;2.38;;;;;;;5.52;64.71;97234.66;1259560;23;20009;-80
2021/03/28 00:39:47;;;;;;;5.28;2.15;;;;;;;5.52;64.68;97235.47;1259566;23;20754;-80
2021/03/28 00:40:21;;;;;;;6.95;2.72;;;;;;;5.53;64.05;97237.13;1261160;23;20014;-80
2021/03/28 00:41:22;;;;;;;6.32;2.10;;;;;;;5.50;64.46;97234.06;1254306;23;20071;-79
2021/03/28 00:41:56;;;;;;;7.85;2.38;;;;;;;5.47;64.32;97233.44;1263228;23;20030;-80
2021/03/28 00:42:36;;;;;;;7.35;2.10;;;;;;;5.47;64.80;97238.75;1268295;23;20095;-79
2021/03/28 00:43:18;;;;;;;6.55;1.90;;;;;;;5.50;64.94;97237.53;1271992;23;20006;-80
2021/03/28 00:44:19;;;;;;;6.72;1.92;;;;;;;5.48;64.90;97239.59;1265803;23;20006;-80
2021/03/28 00:45:13;;;;;;;6.86;1.90;;;;;;;5.41;64.81;97226.31;1247392;23;20437;-79
2021/03/28 00:45:44;;;;;;;6.70;2.03;;;;;;;5.43;65.21;97228.78;1256666;23;20225;-79
2021/03/28 00:46:49;;;;;;;7.03;1.97;;;;;;;5.40;65.22;97235.31;1259680;23;20515;-80
2021/03/28 00:47:24;;;;;;;8.95;2.60;;;;;;;5.44;65.32;97227.75;1284108;23;20582;-79
2021/03/28 00:48:13;;;;;;;6.72;2.70;;;;;;;5.44;65.39;97227.75;1271957;23;20443;-80
2021/03/28 00:48:48;;;;;;;8.52;2.47;;;;;;;5.50;65.05;97226.94;1272031;23;20002;-80
2021/03/28 00:49:35;;;;;;;7.63;2.38;;;;;;;5.47;64.63;97224.69;1259721;23;19999;-81
2021/03/28 00:50:20;;;;;;;6.82;2.28;;;;;;;5.48;64.77;97226.34;1259390;23;20424;-81
2021/03/28 00:51:01;;;;;;;6.05;2.08;;;;;;;5.46;65.46;97231.81;1260086;23;20002;-82
2021/03/28 00:51:32;;;;;;;9.32;2.45;;;;;;;5.48;65.53;97235.09;1265839;23;20454;-81
2021/03/28 00:52:05;;;;;;;7.40;2.30;;;;;;;5.49;65.31;97233.25;1276511;23;20017;-80
2021/03/28 00:53:03;;;;;;;8.52;2.55;;;;;;;5.50;66.13;97229.56;1271896;23;20005;-79
2021/03/28 00:53:38;;;;;;;8.35;2.42;;;;;;;5.46;65.57;97228.34;1262529;23;20010;-81
2021/03/28 00:54:13;;;;;;;5.93;2.20;;;;;;;5.47;65.03;97235.28;1260668;23;20490;-81
2021/03/28 00:54:46;;;;;;;7.75;2.30;;;;;;;5.50;65.09;97228.75;1254066;23;20010;-80
2021/03/28 00:55:19;;;;;;;7.68;2.38;;;;;;;5.49;65.33;97233.25;1256273;23;20078;-79
2021/03/28 00:55:57;;;;;;;8.38;2.25;;;;;;;5.44;65.87;97215.31;1250409;23;20310;-80
2021/03/28 00:56:30;;;;;;;8.32;2.22;;;;;;;5.46;65.55;97228.34;1256559;23;20058;-79
2021/03/28 00:57:02;;;;;;;8.35;2.17;;;;;;;5.43;65.58;97229.59;1262879;23;20030;-80
2021/03/28 00:57:37;;;;;;;4.53;1.80;;;;;;;5.41;65.40;97223.66;1262111;23;20010;-80
2021/03/28 00:58:10;;;;;;;8.63;1.90;;;;;;;5.38;65.46;97228.59;1255690;23;20007;-81
2021/03/28 00:59:02;;;;;;;6.78;2.30;;;;;;;5.34;65.99;97222.88;1259689;23;19998;-79
2021/03/28 00:59:36;;;;;;;9.60;2.33;;;;;;;5.38;65.46;97220.63;1271584;23;20001;-80
2021/03/28 01:00:18;;;;;;;8.57;2.20;;;;;;;5.36;65.52;97226.13;1277520;23;20354;-80
2021/03/28 01:01:28;;;;;;;6.45;2.13;;;;;;;5.37;65.98;97224.28;1278391;23;20363;-80
2021/03/28 01:02:05;;;;;;;8.63;2.38;;;;;;;5.27;66.03;97223.91;1278235;23;20088;-80
2021/03/28 01:02:38;;;;;;;8.23;2.22;;;;;;;5.30;66.12;97231.44;1278435;23;20426;-80
2021/03/28 01:03:57;;;;;;;9.57;2.25;;;;;;;5.29;66.44;97227.97;1278100;23;20000;-80
2021/03/28 01:04:45;;;;;;;9.45;2.15;;;;;;;5.26;66.65;97220.44;1283153;23;20501;-81
2021/03/28 01:05:23;;;;;;;7.28;2.03;;;;;;;5.24;66.26;97217.19;1277938;23;20005;-79
2021/03/28 01:05:53;;;;;;;6.38;2.38;;;;;;;5.21;66.58;97215.75;1277903;23;20468;-80
2021/03/28 01:06:28;;;;;;;6.80;2.17;;;;;;;5.24;66.33;97222.50;1265815;23;20009;-80
2021/03/28 01:07:20;;;;;;;7.00;2.20;;;;;;;5.22;66.57;97219.25;1263613;23;20009;-80
2021/03/28 01:08:19;;;;;;;7.13;1.90;;;;;;;5.17;66.87;97225.16;1259805;23;20006;-79
2021/03/28 01:08:52;;;;;;;8.68;2.10;;;;;;;5.15;66.69;97226.38;1267188;23;20010;-80
2021/03/28 01:09:37;;;;;;;7.57;2.50;;;;;;;5.11;67.12;97218.00;1275662;23;20001;-80
2021/03/28 01:10:32;;;;;;;5.28;2.20;;;;;;;5.10;66.84;97216.38;1277911;23;20009;-80
2021/03/28 01:11:45;;;;;;;8.90;2.08;;;;;;;5.14;66.75;97217.59;1278435;23;20012;-80
2021/03/28 01:12:52;;;;;;;6.63;2.08;;;;;;;5.10;66.93;97216.38;1278002;23;20039;-80
2021/03/28 01:13:31;;;;;;;7.90;2.38;;;;;;;5.08;66.93;97214.97;1278038;23;20001;-81
2021/03/28 01:14:46;;;;;;;8.30;2.75;;;;;;;5.11;66.84;97222.50;1278541;23;20378;-77
2021/03/28 01:15:53;;;;;;;5.72;1.88;;;;;;;4.98;67.87;97215.38;1278516;23;20064;-79
2021/03/28 01:17:01;;;;;;;7.07;2.28;;;;;;;4.98;68.18;97207.44;1278781;23;19993;-80
2021/03/28 01:17:43;;;;;;;9.50;2.65;;;;;;;4.98;68.07;97211.91;1278732;23;20008;-79
2021/03/28 01:18:32;;;;;;;9.90;2.47;;;;;;;4.91;68.53;97203.94;1278642;23;20000;-79
2021/03/28 01:19:33;;;;;;;7.28;2.08;;;;;;;4.93;68.38;97201.94;1272266;23;20045;-80
2021/03/28 01:20:08;;;;;;;5.95;2.30;;;;;;;4.93;68.31;97204.56;1270071;23;20329;-80
2021/03/28 01:21:19;;;;;;;13.13;2.30;;;;;;;4.94;68.78;97199.06;1273640;23;20439;-79
2021/03/28 01:22:23;;;;;;;9.45;2.33;;;;;;;4.90;67.80;97197.84;1276104;23;20002;-79
2021/03/28 01:23:03;;;;;;;9.63;2.10;;;;;;;4.92;68.23;97195.81;1275512;23;20001;-79
2021/03/28 01:23:40;;;;;;;7.05;2.22;;;;;;;4.90;69.38;97197.84;1280287;23;20088;-79
2021/03/28 01:24:25;;;;;;;6.32;2.25;;;;;;;4.93;68.58;97191.34;1269420;23;20005;-81
2021/03/28 01:25:35;;;;;;;6.15;2.20;;;;;;;4.90;68.44;97197.84;1262596;23;20002;-80
2021/03/28 01:26:08;;;;;;;8.52;2.38;;;;;;;4.87;69.22;97194.81;1263725;23;20408;-80
2021/03/28 01:27:05;;;;;;;6.88;2.10;;;;;;;4.91;68.52;97196.00;1268965;23;20029;-81
2021/03/28 01:27:45;;;;;;;6.32;1.98;;;;;;;4.83;68.48;97193.56;1279367;23;20374;-80
2021/03/28 01:28:27;;;;;;;7.50;2.55;;;;;;;4.85;68.85;97194.16;1273767;23;20025;-81
2021/03/28 01:29:00;;;;;;;7.22;2.20;;;;;;;4.82;68.91;97194.59;1268223;23;20006;-81
2021/03/28 01:29:37;;;;;;;7.57;2.20;;;;;;;4.83;68.71;97191.75;1266363;23;20001;-80
2021/03/28 01:30:12;;;;;;;7.72;2.53;;;;;;;4.83;68.66;97188.28;1260380;23;20006;-81
2021/03/28 01:30:48;;;;;;;5.78;2.17;;;;;;;4.84;68.98;97196.00;1254257;23;20006;-81
2021/03/28 01:31:35;;;;;;;6.18;2.08;;;;;;;4.77;69.28;97195.19;1263678;23;20006;-81
2021/03/28 01:32:08;;;;;;;10.18;2.30;;;;;;;4.76;68.97;97198.88;1277952;23;20037;-81
2021/03/28 01:32:46;;;;;;;10.15;2.70;;;;;;;4.77;69.58;97202.34;1277510;23;20005;-80
2021/03/28 01:33:19;;;;;;;6.82;2.35;;;;;;;4.76;69.69;97198.03;1272828;23;20013;-79
2021/03/28 01:33:55;;;;;;;7.40;2.30;;;;;;;4.80;69.43;97202.72;1272310;23;20064;-81
2021/03/28 01:34:29;;;;;;;9.35;2.00;;;;;;;4.81;69.57;97193.78;1269490;23;20001;-80
2021/03/28 01:35:12;;;;;;;11.55;2.35;;;;;;;4.80;69.18;97204.56;1266162;23;20002;-79
2021/03/28 01:35:48;;;;;;;7.72;2.25;;;;;;;4.81;69.15;97203.53;1270887;23;20006;-80
2021/03/28 01:36:30;;;;;;;8.88;2.13;;;;;;;4.82;69.02;97199.91;1272252;23;20013;-80
2021/03/28 01:37:03;;;;;;;8.82;2.10;;;;;;;4.83;69.08;97198.88;1272212;23;20344;-79
2021/03/28 01:37:44;;;;;;;5.07;1.80;;;;;;;4.82;68.95;97199.91;1272495;23;20069;-80
2021/03/28 01:38:40;;;;;;;11.30;2.50;;;;;;;4.82;69.46;97197.25;1265347;23;20374;-80
2021/03/28 01:39:46;;;;;;;4.82;1.92;;;;;;;4.83;69.43;97190.91;1272161;23;20029;-80
2021/03/28 01:40:18;;;;;;;7.35;2.20;;;;;;;4.84;69.25;97197.84;1265737;23;20017;-81
2021/03/28 01:41:12;;;;;;;7.00;2.10;;;;;;;4.79;69.65;97195.81;1258277;23;20039;-80
2021/03/28 01:41:50;;;;;;;9.43;2.25;;;;;;;4.80;69.19;97194.78;1266131;23;20066;-81
2021/03/28 01:42:26;;;;;;;7.45;2.42;;;;;;;4.77;69.65;97189.09;1266600;23;20024;-81
2021/03/28 01:43:09;;;;;;;8.57;2.35;;;;;;;4.78;69.94;97194.19;1278578;23;20112;-79
2021/03/28 01:43:54;;;;;;;6.72;2.25;;;;;;;4.79;70.01;97195.00;1283936;23;20000;-80
2021/03/28 01:44:27;;;;;;;7.70;2.13;;;;;;;4.79;69.99;97197.63;1278789;23;20013;-81
2021/03/28 01:45:08;;;;;;;7.13;2.15;;;;;;;4.77;69.86;97189.09;1278279;23;20008;-80
2021/03/28 01:45:54;;;;;;;11.00;2.42;;;;;;;4.76;69.97;97193.59;1272213;23;20048;-81
2021/03/28 01:46:33;;;;;;;7.18;2.20;;;;;;;4.75;69.83;97183.16;1266401;23;20014;-80
2021/03/28 01:47:18;;;;;;;5.85;2.08;;;;;;;4.77;70.11;97197.03;1272428;23;20013;-80
2021/03/28 01:47:52;;;;;;;8.40;2.65;;;;;;;4.76;70.46;97190.09;1272552;23;20005;-81
2021/03/28 01:48:43;;;;;;;6.38;2.35;;;;;;;4.77;70.37;97194.41;1271471;23;20076;-81
2021/03/28 01:49:42;;;;;;;8.85;2.35;;;;;;;4.75;70.48;97193.75;1273263;23;20002;-81
2021/03/28 01:50:47;;;;;;;5.15;2.03;;;;;;;4.74;70.68;97186.84;1275927;23;20084;-81
2021/03/28 01:51:31;;;;;;;7.05;2.17;;;;;;;4.70;70.60;97189.88;1253510;23;20473;-81
2021/03/28 01:52:36;;;;;;;7.10;2.38;;;;;;;4.66;70.83;97193.97;1248054;23;20019;-82
2021/03/28 01:53:10;;;;;;;8.40;2.25;;;;;;;4.59;70.60;97189.69;1242061;23;20072;-81
2021/03/28 01:54:05;;;;;;;5.95;2.17;;;;;;;4.57;70.97;97189.91;1239032;23;20490;-81
2021/03/28 01:55:03;;;;;;;6.13;2.00;;;;;;;4.56;71.01;97198.06;1266173;23;20050;-81
2021/03/28 01:55:40;;;;;;;6.18;2.30;;;;;;;4.53;71.24;97193.16;1277278;23;20039;-81
2021/03/28 01:56:17;;;;;;;7.45;2.22;;;;;;;4.50;71.57;97193.53;1266304;23;20471;-81
2021/03/28 01:56:58;;;;;;;6.03;2.20;;;;;;;4.47;71.86;97183.38;1254259;23;20488;-81
2021/03/28 01:57:39;;;;;;;8.48;2.70;;;;;;;4.47;71.71;97196.59;1258883;23;20451;-81
2021/03/28 01:58:27;;;;;;;10.35;2.63;;;;;;;4.43;72.08;97191.72;1271801;23;20002;-81
2021/03/28 01:59:27;;;;;;;6.22;2.40;;;;;;;4.42;72.01;97199.84;1278268;23;19997;-81
2021/03/28 02:00:09;;;;;;;7.90;2.40;;;;;;;4.41;72.36;97193.75;1272092;23;20463;-81
2021/03/28 02:01:06;;;;;;;7.10;2.30;;;;;;;4.40;72.11;97193.94;1266068;23;20002;-81
2021/03/28 02:01:46;;;;;;;7.13;2.40;;;;;;;4.38;72.07;97201.28;1271395;23;20404;-81
2021/03/28 02:02:37;;;;;;;8.25;2.72;;;;;;;4.38;72.80;97195.97;1266128;23;20168;-81
2021/03/28 02:03:45;;;;;;;6.25;2.03;;;;;;;4.33;72.61;97195.75;1260103;23;20077;-81
2021/03/28 02:04:24;;;;;;;8.48;1.92;;;;;;;4.34;72.93;97194.75;1241671;23;20328;-80
2021/03/28 02:05:17;;;;;;;7.93;2.63;;;;;;;4.35;72.69;97188.41;1248054;23;20003;-80
2021/03/28 02:05:59;;;;;;;8.23;2.60;;;;;;;4.31;73.06;97197.81;1222017;24;20455;-81
2021/03/28 02:06:46;;;;;;;7.65;2.30;;;;;;;4.28;73.19;97196.34;1230512;24;20529;-80
2021/03/28 02:08:01;;;;;;;7.03;2.17;;;;;;;4.27;73.50;97194.72;1272186;23;20148;-80
2021/03/28 02:08:53;;;;;;;5.57;2.20;;;;;;;4.27;73.32;97204.50;1265795;23;20104;-79
2021/03/28 02:09:35;;;;;;;6.00;2.25;;;;;;;4.25;73.28;97198.59;1265988;23;20029;-81
2021/03/28 02:10:08;;;;;;;7.38;2.17;;;;;;;4.28;73.21;97198.19;1266511;23;20054;-81
2021/03/28 02:11:00;;;;;;;7.53;2.08;;;;;;;4.27;73.15;97196.56;1265616;23;20006;-82
2021/03/28 02:11:57;;;;;;;8.43;2.28;;;;;;;4.27;73.11;97196.56;1272096;23;20016;-81
2021/03/28 02:12:41;;;;;;;7.38;2.17;;;;;;;4.27;73.25;97197.38;1263306;23;20022;-80
2021/03/28 02:13:22;;;;;;;5.95;2.08;;;;;;;4.23;73.37;97188.22;1259962;23;20113;-80
2021/03/28 02:14:19;;;;;;;8.32;2.40;;;;;;;4.21;73.07;97197.38;1255285;23;20065;-80
2021/03/28 02:15:17;;;;;;;4.68;2.10;;;;;;;4.18;73.74;97191.44;1261515;23;20469;-80
2021/03/28 02:16:25;;;;;;;7.50;2.20;;;;;;;4.14;73.47;97197.34;1264519;23;20002;-81
2021/03/28 02:17:01;;;;;;;8.30;2.10;;;;;;;4.15;73.59;97194.50;1272043;23;20009;-81
2021/03/28 02:17:43;;;;;;;6.57;2.33;;;;;;;4.16;73.89;97190.03;1278443;23;20524;-81
2021/03/28 02:18:21;;;;;;;6.50;2.47;;;;;;;4.15;73.48;97186.56;1278403;23;19997;-81
2021/03/28 02:19:07;;;;;;;6.53;2.60;;;;;;;4.17;73.21;97191.66;1277132;23;20009;-81
2021/03/28 02:19:37;;;;;;;5.25;1.98;;;;;;;4.15;73.82;97183.94;1278320;23;20001;-81
2021/03/28 02:20:23;;;;;;;6.93;2.20;;;;;;;4.15;73.78;97183.94;1278318;23;20000;-81
2021/03/28 02:21:10;;;;;;;6.20;2.33;;;;;;;4.16;73.95;97182.09;1284194;23;20490;-81
2021/03/28 02:22:02;;;;;;;5.85;2.30;;;;;;;4.20;73.45;97185.13;1284299;23;20450;-80
2021/03/28 02:22:40;;;;;;;9.43;2.60;;;;;;;4.20;73.79;97185.13;1279951;23;20009;-80
2021/03/28 02:23:30;;;;;;;6.82;2.20;;;;;;;4.23;74.22;97182.09;1278959;23;20001;-81
2021/03/28 02:24:22;;;;;;;10.52;2.70;;;;;;;4.17;73.74;97178.44;1266517;23;20044;-81
2021/03/28 02:25:18;;;;;;;6.68;2.35;;;;;;;4.21;73.52;97181.50;1254261;23;20010;-80
2021/03/28 02:26:25;;;;;;;7.15;2.60;;;;;;;4.15;74.11;97186.56;1255896;23;20429;-81
2021/03/28 02:27:16;;;;;;;6.90;2.08;;;;;;;4.16;73.84;97190.84;1278464;23;20461;-80
2021/03/28 02:28:16;;;;;;;8.73;2.05;;;;;;;4.16;74.18;97190.03;1278815;23;20354;-81
2021/03/28 02:29:07;;;;;;;7.20;2.35;;;;;;;4.17;74.16;97189.00;1278381;23;20462;-81
2021/03/28 02:29:59;;;;;;;6.22;2.35;;;;;;;4.22;73.99;97193.72;1278384;23;20001;-80
2021/03/28 02:30:33;;;;;;;9.63;2.33;;;;;;;4.24;74.11;97192.47;1280960;23;20009;-81
2021/03/28 02:31:32;;;;;;;6.80;2.60;;;;;;;4.24;73.96;97199.59;1278215;23;20088;-80
2021/03/28 02:32:27;;;;;;;5.72;2.28;;;;;;;4.16;74.40;97193.50;1265670;23;20010;-80
2021/03/28 02:33:16;;;;;;;6.60;2.45;;;;;;;4.23;74.66;97198.78;1266602;23;20093;-79
2021/03/28 02:34:00;;;;;;;7.97;2.63;;;;;;;4.26;73.87;97194.94;1272373;23;19993;-80
2021/03/28 02:34:36;;;;;;;7.45;2.30;;;;;;;4.26;73.92;97200.25;1266736;23;20014;-80
2021/03/28 02:35:33;;;;;;;6.20;2.00;;;;;;;4.28;73.79;97203.47;1272026;23;20052;-80
2021/03/28 02:36:21;;;;;;;8.63;2.83;;;;;;;4.29;73.55;97200.63;1272418;23;20340;-81
2021/03/28 02:37:17;;;;;;;5.90;2.40;;;;;;;4.27;73.71;97196.56;1278605;23;20435;-81
2021/03/28 02:37:47;;;;;;;8.60;2.65;;;;;;;4.23;74.32;97198.78;1278382;23;20001;-80
2021/03/28 02:38:42;;;;;;;7.87;2.47;;;;;;;4.23;74.48;97201.44;1278420;23;20020;-80
2021/03/28 02:39:28;;;;;;;8.40;2.25;;;;;;;4.24;74.02;97199.59;1279806;23;20029;-79
2021/03/28 02:40:17;;;;;;;9.98;2.95;;;;;;;4.24;73.82;97199.59;1272103;23;20081;-79
2021/03/28 02:40:59;;;;;;;10.10;2.45;;;;;;;4.28;74.15;97203.47;1272151;23;20083;-81
2021/03/28 02:41:51;;;;;;;7.32;2.90;;;;;;;4.28;73.97;97200.84;1272662;23;20005;-80
2021/03/28 02:42:30;;;;;;;8.60;2.88;;;;;;;4.29;73.95;97202.47;1278712;23;20005;-81
2021/03/28 02:43:05;;;;;;;9.75;2.33;;;;;;;4.29;74.21;97197.97;1278423;23;20004;-81
2021/03/28 02:44:26;;;;;;;6.43;2.50;;;;;;;4.29;74.32;97199.81;1278258;23;20427;-80
2021/03/28 02:45:24;;;;;;;6.03;2.40;;;;;;;4.33;74.04;97196.56;1278488;23;20005;-81
2021/03/28 02:46:29;;;;;;;8.02;3.05;;;;;;;4.30;74.30;97197.00;1278275;23;20012;-80
2021/03/28 02:47:27;;;;;;;9.30;2.60;;;;;;;4.29;74.58;97190.03;1265470;23;20041;-81
2021/03/28 02:48:17;;;;;;;6.97;2.47;;;;;;;4.32;74.44;97194.13;1259738;23;20054;-81
2021/03/28 02:49:17;;;;;;;11.15;2.50;;;;;;;4.31;74.41;97195.97;1263407;23;20441;-81
2021/03/28 02:50:05;;;;;;;6.82;2.40;;;;;;;4.34;74.12;97187.59;1275948;23;20006;-81
2021/03/28 02:50:51;;;;;;;7.70;2.55;;;;;;;4.36;74.03;97193.53;1270527;23;20423;-82
2021/03/28 02:51:46;;;;;;;6.55;2.22;;;;;;;4.35;74.76;97202.50;1265648;23;20026;-81
2021/03/28 02:52:44;;;;;;;8.57;2.40;;;;;;;4.36;74.41;97206.78;1272613;23;20013;-79
2021/03/28 02:53:37;;;;;;;6.65;2.40;;;;;;;4.39;74.30;97203.69;1259561;23;20013;-80
2021/03/28 02:54:19;;;;;;;9.02;2.40;;;;;;;4.40;74.47;97205.34;1268154;23;20001;-81
2021/03/28 02:55:19;;;;;;;9.48;2.85;;;;;;;4.40;74.32;97207.16;1266950;23;20006;-81
2021/03/28 02:56:03;;;;;;;7.20;2.30;;;;;;;4.44;73.90;97203.09;1260051;23;20002;-81
2021/03/28 02:56:55;;;;;;;7.63;2.28;;;;;;;4.48;74.28;97193.75;1265509;23;20480;-81
2021/03/28 02:57:49;;;;;;;4.45;2.10;;;;;;;4.47;74.36;97207.19;1277129;23;20008;-81
2021/03/28 02:58:33;;;;;;;7.38;2.42;;;;;;;4.50;74.65;97207.59;1278615;23;20386;-80
2021/03/28 02:59:21;;;;;;;6.53;2.45;;;;;;;4.51;73.82;97206.59;1278263;23;20009;-81
2021/03/28 03:00:29;;;;;;;7.28;2.70;;;;;;;4.48;74.25;97198.22;1278383;23;20008;-81
2021/03/28 03:01:10;;;;;;;7.97;2.47;;;;;;;4.52;73.82;97202.94;1277917;23;20080;-80
2021/03/28 03:02:02;;;;;;;8.13;2.50;;;;;;;4.54;74.09;97198.22;1278434;23;19997;-81
2021/03/28 03:02:38;;;;;;;9.60;2.55;;;;;;;4.53;74.20;97201.09;1260427;23;20014;-82
2021/03/28 03:03:15;;;;;;;6.20;2.35;;;;;;;4.52;74.04;97199.47;1266256;23;20006;-81
2021/03/28 03:03:57;;;;;;;8.75;2.80;;;;;;;4.56;74.32;97198.88;1266193;23;20113;-81
2021/03/28 03:04:59;;;;;;;9.82;2.50;;;;;;;4.55;74.39;97199.03;1275827;23;20382;-81
2021/03/28 03:06:05;;;;;;;10.05;2.67;;;;;;;4.54;74.20;97211.47;1277246;23;20362;-81
2021/03/28 03:06:46;;;;;;;8.35;2.38;;;;;;;4.53;74.14;97207.19;1253805;23;20504;-80
2021/03/28 03:07:50;;;;;;;8.70;3.00;;;;;;;4.52;74.68;97205.56;1253977;23;20093;-80
2021/03/28 03:08:31;;;;;;;9.25;2.95;;;;;;;4.50;74.88;97212.88;1277775;23;20012;-80
2021/03/28 03:09:10;;;;;;;6.16;2.34;;;;;;;4.52;74.95;97210.06;1272138;23;20020;-80
2021/03/28 03:09:49;;;;;;;7.35;2.60;;;;;;;4.53;74.55;97217.78;1274086;23;20084;-80
2021/03/28 03:10:50;;;;;;;7.47;2.70;;;;;;;4.50;74.81;97209.44;1278322;23;20427;-80
2021/03/28 03:11:44;;;;;;;9.25;2.53;;;;;;;4.50;74.94;97212.06;1272224;23;20080;-80
2021/03/28 03:12:25;;;;;;;6.65;2.65;;;;;;;4.52;74.94;97216.16;1272076;23;19997;-81
2021/03/28 03:13:14;;;;;;;9.07;2.97;;;;;;;4.52;75.09;97213.50;1255285;23;19998;-81
2021/03/28 03:13:59;;;;;;;7.15;2.58;;;;;;;4.48;75.13;97208.81;1248916;23;20007;-81
2021/03/28 03:14:51;;;;;;;10.45;2.70;;;;;;;4.54;74.92;97206.19;1257384;23;20003;-81
2021/03/28 03:15:31;;;;;;;8.57;2.92;;;;;;;4.51;74.66;97208.44;1272713;23;20461;-80
2021/03/28 03:16:08;;;;;;;7.78;2.67;;;;;;;4.54;74.69;97210.66;1271994;23;20001;-81
2021/03/28 03:17:10;;;;;;;8.88;2.70;;;;;;;4.51;75.11;97203.94;1265982;23;20014;-81
2021/03/28 03:18:02;;;;;;;6.22;2.20;;;;;;;4.46;74.94;97206.38;1275029;23;20017;-83
2021/03/28 03:19:10;;;;;;;7.70;2.42;;;;;;;4.38;75.13;97210.03;1278674;23;20008;-81
2021/03/28 03:19:56;;;;;;;5.63;2.45;;;;;;;4.43;75.10;97209.41;1260078;23;20018;-80
2021/03/28 03:20:57;;;;;;;6.53;2.50;;;;;;;4.44;75.32;97205.75;1278325;23;20079;-80
2021/03/28 03:22:03;;;;;;;5.97;2.40;;;;;;;4.42;75.15;97210.44;1272303;23;20006;-80
2021/03/28 03:23:04;;;;;;;7.65;2.50;;;;;;;4.47;75.07;97215.13;1278408;23;19997;-81
2021/03/28 03:23:57;;;;;;;7.40;2.58;;;;;;;4.47;75.37;97215.94;1281605;23;20005;-79
2021/03/28 03:24:44;;;;;;;7.75;2.95;;;;;;;4.49;75.39;97208.59;1283144;23;20001;-81
2021/03/28 03:25:24;;;;;;;6.00;2.30;;;;;;;4.48;75.28;97208.81;1285278;23;19996;-79
2021/03/28 03:26:15;;;;;;;6.35;2.53;;;;;;;4.50;75.06;97214.72;1284412;23;20071;-81
2021/03/28 03:27:19;;;;;;;8.35;2.20;;;;;;;4.49;75.50;97211.25;1277485;23;20516;-80
2021/03/28 03:28:20;;;;;;;8.90;2.63;;;;;;;4.47;76.05;97208.00;1271926;23;20440;-81
2021/03/28 03:29:12;;;;;;;6.53;2.47;;;;;;;4.50;75.83;97220.81;1259872;23;20006;-81
2021/03/28 03:30:04;;;;;;;6.13;2.65;;;;;;;4.46;75.66;97219.63;1281675;23;20001;-81
2021/03/28 03:30:49;;;;;;;6.28;2.17;;;;;;;4.47;75.51;97208.00;1272104;23;20005;-81
2021/03/28 03:31:45;;;;;;;7.15;2.50;;;;;;;4.49;75.21;97218.38;1265941;23;20009;-81
2021/03/28 03:32:37;;;;;;;4.82;2.22;;;;;;;4.51;75.46;97206.59;1265672;23;20005;-81
2021/03/28 03:33:36;;;;;;;7.10;2.55;;;;;;;4.53;75.55;97206.38;1269697;23;20328;-81
2021/03/28 03:34:44;;;;;;;5.50;2.67;;;;;;;4.49;75.68;97207.81;1270376;23;20454;-80
2021/03/28 03:35:26;;;;;;;6.85;2.60;;;;;;;4.47;75.63;97208.00;1278203;23;20001;-81
2021/03/28 03:36:25;;;;;;;5.13;2.20;;;;;;;4.47;75.50;97205.34;1278044;23;20032;-81
2021/03/28 03:37:04;;;;;;;5.75;2.25;;;;;;;4.51;75.96;97203.94;1278307;23;20008;-81
2021/03/28 03:37:50;;;;;;;8.50;2.90;;;;;;;4.54;75.68;97206.19;1273319;23;20001;-81
2021/03/28 03:38:57;;;;;;;6.30;2.75;;;;;;;4.56;75.62;97208.63;1272028;23;19993;-81
2021/03/28 03:39:55;;;;;;;8.25;2.42;;;;;;;4.57;75.46;97208.44;1276586;23;20366;-81